Tampa, Florida
Traffic Map
Current Weather Conditions
Tampa, Florida
Scattered Clouds
Scattered Clouds
30°
Feels Like: 33°
Wind Chill: 30° Ceiling: Unl
Heat Index: 33° Visibility: 10mi
Dew Point: 21° Wind: 7mph
Humidity: 59% Direction: 230° (SW)
Pressure: 30.09in Gusts: 0mph
Raw Report DataKTPA 271553Z 23006KT 10SM SCT035CB 30/21 A3009 RMK AO2 SLP188 CB SW MOV SW T03000211
Traffic Incident Summary
Active as of:
Severity:
Category:
InformationThere was an issue retrieving the traffic information for this location. Please try a different location or try again shortly.
Advertisements
Track Severe Weather on mobile